Time;durP1;ratioP1;P1;durP2;ratioP2;P2;SDS_P1;SDS_P2;PMS_P1;PMS_P2;Temp;Humidity;BMP_temperature;BMP_pressure;BME280_temperature;BME280_humidity;BME280_pressure;Samples;Min_cycle;Max_cycle;Signal;HPM_P1;HPM_P2
2022/08/03 00:02:30;;;;;;;4.88;2.33;;;21.20;78.60;;;;;;6197484;28;20053;-77
2022/08/03 00:05:32;;;;;;;4.07;1.73;;;21.10;78.00;;;;;;6197259;28;20050;-75
2022/08/03 00:08:34;;;;;;;4.30;1.52;;;21.00;78.70;;;;;;6197133;28;20046;-75
2022/08/03 00:11:36;;;;;;;4.05;1.55;;;20.90;79.20;;;;;;6198041;28;20062;-76
2022/08/03 00:14:38;;;;;;;5.63;1.65;;;20.90;79.30;;;;;;6196978;28;20426;-75
2022/08/03 00:17:41;;;;;;;2.22;1.70;;;20.90;79.70;;;;;;6197381;28;20053;-76
2022/08/03 00:20:43;;;;;;;2.55;1.40;;;20.80;79.90;;;;;;6197080;28;20414;-75
2022/08/03 00:23:45;;;;;;;5.93;1.67;;;20.70;80.10;;;;;;6197590;28;20047;-76
2022/08/03 00:26:47;;;;;;;3.20;1.65;;;20.70;81.20;;;;;;6197454;28;20050;-75
2022/08/03 00:29:48;;;;;;;2.97;1.70;;;20.70;80.80;;;;;;6197000;28;20042;-75
2022/08/03 00:32:51;;;;;;;3.05;1.65;;;20.70;80.90;;;;;;6197223;28;20049;-76
2022/08/03 00:35:53;;;;;;;4.25;1.58;;;20.70;81.10;;;;;;6198750;28;20053;-75
2022/08/03 00:38:55;;;;;;;3.65;1.95;;;20.60;81.30;;;;;;6202787;28;20050;-76
2022/08/03 00:41:57;;;;;;;4.80;1.50;;;20.50;81.50;;;;;;6201527;28;20045;-77
2022/08/03 00:44:59;;;;;;;5.07;1.70;;;20.50;81.90;;;;;;6193560;28;20049;-76
2022/08/03 00:48:03;;;;;;;2.60;1.30;;;20.40;82.20;;;;;;6201659;28;20062;-77
2022/08/03 00:51:05;;;;;;;2.22;1.50;;;20.40;82.80;;;;;;6202167;28;20050;-77
2022/08/03 00:54:07;;;;;;;2.40;1.80;;;20.40;82.70;;;;;;6201379;28;20509;-78
2022/08/03 00:57:09;;;;;;;2.92;1.83;;;20.30;83.30;;;;;;6201609;28;20399;-77
2022/08/03 01:00:13;;;;;;;2.88;2.25;;;20.30;83.40;;;;;;6201761;28;20528;-77
2022/08/03 01:03:16;;;;;;;4.65;2.28;;;20.30;83.30;;;;;;6201826;28;20535;-76
2022/08/03 01:06:19;;;;;;;4.03;1.67;;;20.30;83.40;;;;;;6201307;28;20043;-76
2022/08/03 01:09:38;;;;;;;2.53;1.70;;;20.30;83.70;;;;;;6201103;28;20093;-77
2022/08/03 01:12:47;;;;;;;4.15;1.65;;;20.30;83.90;;;;;;6200798;28;20073;-76
2022/08/03 01:15:57;;;;;;;2.95;1.55;;;20.20;84.00;;;;;;6184888;28;20617;-74
2022/08/03 01:19:12;;;;;;;4.20;1.80;;;20.20;84.30;;;;;;6177859;28;20055;-77
2022/08/03 01:22:40;;;;;;;5.43;1.85;;;20.10;84.50;;;;;;6184855;28;20134;-75
2022/08/03 01:26:09;;;;;;;2.80;1.58;;;20.10;84.70;;;;;;6176673;28;20061;-77
2022/08/03 01:29:41;;;;;;;3.20;2.35;;;20.10;84.90;;;;;;6185455;28;20058;-76
2022/08/03 01:32:52;;;;;;;3.30;1.90;;;20.00;84.90;;;;;;6184648;28;20058;-75
2022/08/03 01:35:58;;;;;;;2.70;1.95;;;20.00;84.90;;;;;;6176721;28;20055;-75
2022/08/03 01:39:02;;;;;;;2.60;1.95;;;20.00;85.00;;;;;;6176869;28;20059;-76
2022/08/03 01:42:06;;;;;;;3.05;1.50;;;20.00;85.30;;;;;;6176520;28;20043;-75
2022/08/03 01:45:12;;;;;;;4.15;2.00;;;19.90;85.40;;;;;;6176067;28;20440;-75
2022/08/03 01:48:17;;;;;;;11.63;2.00;;;19.90;85.70;;;;;;6176009;28;20050;-76
2022/08/03 01:51:20;;;;;;;2.47;1.85;;;19.80;86.20;;;;;;6176756;28;20514;-76
2022/08/03 01:54:23;;;;;;;2.88;1.95;;;19.70;86.40;;;;;;6176665;28;20773;-76
2022/08/03 01:57:27;;;;;;;1.65;1.40;;;19.70;86.80;;;;;;6176359;28;20581;-75
2022/08/03 02:00:32;;;;;;;4.43;1.60;;;19.70;87.30;;;;;;6176189;28;20043;-75
2022/08/03 02:03:36;;;;;;;4.93;2.25;;;19.60;87.40;;;;;;6153500;28;20050;-75
2022/08/03 02:06:39;;;;;;;3.20;1.60;;;19.60;87.80;;;;;;6175600;28;20039;-76
2022/08/03 02:09:43;;;;;;;4.93;2.15;;;19.60;87.90;;;;;;6175379;28;20042;-75
2022/08/03 02:12:45;;;;;;;2.53;1.80;;;19.50;87.90;;;;;;6176028;28;20050;-75
2022/08/03 02:15:50;;;;;;;3.40;1.75;;;19.50;88.00;;;;;;6175414;28;20053;-75
2022/08/03 02:18:54;;;;;;;4.00;1.75;;;19.50;88.10;;;;;;6176158;28;20058;-76
2022/08/03 02:21:57;;;;;;;2.80;2.00;;;19.50;88.20;;;;;;6175671;28;20047;-75
2022/08/03 02:24:59;;;;;;;3.80;1.92;;;19.50;88.30;;;;;;6175459;28;20039;-76
2022/08/03 02:28:09;;;;;;;2.55;1.92;;;19.50;88.50;;;;;;6175746;28;20047;-75
2022/08/03 02:31:16;;;;;;;5.25;1.92;;;19.40;89.00;;;;;;6175873;28;20050;-75
2022/08/03 02:34:25;;;;;;;3.45;1.67;;;19.40;89.20;;;;;;6175131;28;20055;-77
2022/08/03 02:37:32;;;;;;;4.78;1.92;;;19.40;89.40;;;;;;6175364;28;20173;-76
2022/08/03 02:40:34;;;;;;;4.90;2.35;;;19.40;89.60;;;;;;6175356;28;20043;-76
2022/08/03 02:43:37;;;;;;;3.53;1.70;;;19.30;89.80;;;;;;6175938;28;20053;-74
2022/08/03 02:46:45;;;;;;;2.90;1.88;;;19.30;90.10;;;;;;6174690;28;20053;-76
2022/08/03 02:49:48;;;;;;;3.38;2.10;;;19.40;90.10;;;;;;6175021;28;20193;-76
2022/08/03 02:52:51;;;;;;;4.88;1.98;;;19.40;90.00;;;;;;6175143;28;20050;-75
2022/08/03 02:55:55;;;;;;;3.65;1.98;;;19.40;90.00;;;;;;6174637;28;20073;-75
2022/08/03 02:58:59;;;;;;;5.10;2.30;;;19.40;90.00;;;;;;6174268;28;20047;-77
2022/08/03 03:02:02;;;;;;;4.18;2.28;;;19.30;90.10;;;;;;6174609;28;20043;-75
2022/08/03 03:05:05;;;;;;;4.55;2.03;;;19.30;90.20;;;;;;6174199;28;20047;-77
2022/08/03 03:08:07;;;;;;;3.10;1.90;;;19.20;90.30;;;;;;6174624;28;20050;-75
2022/08/03 03:11:11;;;;;;;3.42;2.00;;;19.00;90.50;;;;;;6174606;28;20055;-75
2022/08/03 03:14:14;;;;;;;2.70;2.00;;;19.10;90.60;;;;;;6174107;28;20426;-77
2022/08/03 03:17:19;;;;;;;4.65;2.28;;;19.00;90.50;;;;;;6174368;28;20051;-76
2022/08/03 03:20:21;;;;;;;3.03;1.73;;;19.00;90.70;;;;;;6174308;28;20050;-76
2022/08/03 03:23:25;;;;;;;2.53;1.88;;;19.00;90.90;;;;;;6174923;28;20054;-75
2022/08/03 03:26:28;;;;;;;6.30;2.33;;;19.00;91.00;;;;;;6173681;28;20131;-75
2022/08/03 03:29:30;;;;;;;3.67;1.73;;;19.00;91.10;;;;;;6173893;28;20051;-75
2022/08/03 03:32:35;;;;;;;4.60;2.08;;;19.10;91.20;;;;;;6174004;28;20051;-77
2022/08/03 03:35:38;;;;;;;4.28;1.85;;;19.00;91.10;;;;;;6174429;28;20055;-77
2022/08/03 03:38:39;;;;;;;3.45;1.90;;;19.10;91.10;;;;;;6173718;28;20061;-76
2022/08/03 03:41:41;;;;;;;4.18;2.03;;;19.10;91.20;;;;;;6173805;28;20057;-78
2022/08/03 03:44:43;;;;;;;4.57;2.10;;;19.10;91.10;;;;;;6173781;28;20054;-77
2022/08/03 03:47:46;;;;;;;3.38;1.65;;;19.00;91.10;;;;;;6174381;28;20061;-76
2022/08/03 03:50:50;;;;;;;3.72;2.22;;;19.00;91.20;;;;;;6173689;28;20422;-77
2022/08/03 03:53:56;;;;;;;3.10;2.05;;;18.90;91.40;;;;;;6173438;28;20061;-78
2022/08/03 03:56:58;;;;;;;3.65;2.53;;;18.90;91.60;;;;;;6173094;28;20442;-76
2022/08/03 03:59:59;;;;;;;3.08;1.83;;;18.90;91.70;;;;;;6173754;28;20067;-77
2022/08/03 04:03:02;;;;;;;4.63;2.22;;;18.80;91.90;;;;;;6174250;28;20054;-77
2022/08/03 04:12:45;;;;;;;6.97;2.03;;;18.80;92.00;;;;;;6173356;28;20244;-76
2022/08/03 04:15:48;;;;;;;5.78;2.13;;;18.90;92.00;;;;;;6173339;28;20438;-78
2022/08/03 04:18:55;;;;;;;4.38;2.53;;;18.80;92.10;;;;;;6173642;28;20058;-77
2022/08/03 04:22:01;;;;;;;3.38;1.85;;;18.90;91.90;;;;;;6173379;28;20063;-78
2022/08/03 04:25:07;;;;;;;3.80;2.40;;;18.90;91.80;;;;;;6173179;28;20046;-76
2022/08/03 04:28:09;;;;;;;8.57;2.25;;;18.90;91.80;;;;;;6173473;28;20057;-76
2022/08/03 04:31:12;;;;;;;4.95;2.60;;;18.90;91.80;;;;;;6173265;28;20495;-78
2022/08/03 04:34:16;;;;;;;3.65;2.20;;;19.00;91.90;;;;;;6172931;28;20057;-78
2022/08/03 04:37:26;;;;;;;8.63;2.38;;;19.00;91.80;;;;;;6172880;28;20050;-78
2022/08/03 04:40:36;;;;;;;7.43;2.00;;;19.10;91.70;;;;;;6173137;28;20055;-78
2022/08/03 04:43:39;;;;;;;2.75;1.98;;;19.20;91.50;;;;;;6174383;28;20054;-78
2022/08/03 04:46:43;;;;;;;4.47;2.33;;;19.20;91.40;;;;;;6176804;28;20046;-78
2022/08/03 04:49:46;;;;;;;8.60;2.85;;;19.30;91.30;;;;;;6176858;28;20525;-78
2022/08/03 04:52:48;;;;;;;4.03;2.30;;;19.40;91.20;;;;;;6177049;28;20043;-78
2022/08/03 04:55:50;;;;;;;6.85;2.78;;;19.50;91.10;;;;;;6177255;28;20053;-78
2022/08/03 04:58:51;;;;;;;4.72;2.47;;;19.70;90.90;;;;;;6177259;28;20502;-78
2022/08/03 05:01:53;;;;;;;7.05;2.35;;;19.90;90.70;;;;;;6176841;28;20097;-78
2022/08/03 05:04:56;;;;;;;3.33;1.95;;;20.10;90.20;;;;;;6176560;28;20043;-78
2022/08/03 05:07:58;;;;;;;4.00;2.05;;;20.30;89.70;;;;;;6176763;28;20503;-78
2022/08/03 05:11:00;;;;;;;8.30;2.47;;;20.40;89.40;;;;;;6178132;28;20055;-80
2022/08/03 05:14:01;;;;;;;4.18;1.90;;;20.60;88.90;;;;;;6178320;28;20065;-78
2022/08/03 05:17:03;;;;;;;6.38;2.90;;;20.80;88.40;;;;;;6176966;28;20434;-79
2022/08/03 05:20:07;;;;;;;5.47;2.75;;;21.00;87.70;;;;;;6174104;28;20518;-77
2022/08/03 05:23:09;;;;;;;7.57;2.60;;;21.40;87.00;;;;;;6177270;28;20061;-78
2022/08/03 05:26:11;;;;;;;5.07;2.28;;;22.50;84.90;;;;;;6177006;28;20046;-78
2022/08/03 05:29:13;;;;;;;4.93;2.15;;;24.50;78.10;;;;;;6177429;28;20051;-78
2022/08/03 05:32:15;;;;;;;3.75;2.55;;;26.20;71.40;;;;;;6177835;28;20046;-78
2022/08/03 05:35:18;;;;;;;5.20;1.48;;;26.70;67.90;;;;;;6178022;28;20046;-78
2022/08/03 05:38:20;;;;;;;7.00;2.65;;;26.40;67.90;;;;;;6177229;28;20049;-79
2022/08/03 05:41:21;;;;;;;6.97;2.30;;;26.60;67.40;;;;;;6177233;28;20047;-79
2022/08/03 05:44:24;;;;;;;2.90;1.90;;;26.90;65.90;;;;;;6177482;28;20047;-77
2022/08/03 05:47:26;;;;;;;6.10;3.03;;;27.20;64.70;;;;;;6179646;28;20050;-78
2022/08/03 05:50:29;;;;;;;8.52;2.35;;;27.60;63.70;;;;;;6179104;28;20057;-79
2022/08/03 05:53:33;;;;;;;12.68;2.35;;;28.30;61.50;;;;;;6178471;28;20051;-79
2022/08/03 05:56:35;;;;;;;17.80;2.65;;;29.30;58.30;;;;;;6177855;28;20042;-79
2022/08/03 05:59:38;;;;;;;15.68;3.00;;;30.20;55.40;;;;;;6179080;28;20051;-79
2022/08/03 06:02:40;;;;;;;14.95;2.63;;;31.30;52.60;;;;;;6177946;28;20047;-79
2022/08/03 06:05:43;;;;;;;8.80;2.30;;;32.30;50.10;;;;;;6177790;28;20051;-79
2022/08/03 06:08:47;;;;;;;13.00;2.55;;;33.40;47.80;;;;;;6177924;28;20062;-79
2022/08/03 06:11:49;;;;;;;2.95;1.42;;;34.70;44.70;;;;;;6178153;28;20096;-79
2022/08/03 06:14:51;;;;;;;4.85;1.60;;;36.00;42.00;;;;;;6178245;28;20050;-78
2022/08/03 06:17:52;;;;;;;4.78;1.70;;;37.20;39.50;;;;;;6178050;28;20054;-80
2022/08/03 06:20:55;;;;;;;4.85;1.40;;;38.20;37.60;;;;;;6178452;28;20046;-79
2022/08/03 06:23:57;;;;;;;2.97;1.25;;;38.90;36.70;;;;;;6178079;28;20050;-79
2022/08/03 06:26:59;;;;;;;6.68;1.50;;;39.20;36.00;;;;;;6178090;28;20415;-79
2022/08/03 06:30:01;;;;;;;2.45;1.20;;;39.60;35.40;;;;;;6178859;28;20536;-79
2022/08/03 06:33:02;;;;;;;4.85;1.38;;;40.10;34.60;;;;;;6179892;28;20055;-79
2022/08/03 06:36:06;;;;;;;4.07;1.52;;;40.50;34.00;;;;;;6178977;28;20054;-79
2022/08/03 06:39:08;;;;;;;2.72;1.05;;;40.90;33.30;;;;;;6179884;28;20510;-80
2022/08/03 06:42:10;;;;;;;7.72;1.35;;;41.30;32.80;;;;;;6179061;28;20058;-80
2022/08/03 06:45:12;;;;;;;3.72;1.80;;;41.70;32.60;;;;;;6179601;28;20043;-80
2022/08/03 06:48:14;;;;;;;4.82;1.45;;;42.20;32.10;;;;;;6181193;28;20366;-82
2022/08/03 06:51:17;;;;;;;3.80;0.90;;;42.40;31.40;;;;;;6183488;28;20053;-82
2022/08/03 06:54:20;;;;;;;2.38;1.20;;;40.60;32.70;;;;;;6182608;28;20047;-81
2022/08/03 06:57:22;;;;;;;2.10;1.10;;;38.20;34.90;;;;;;6186095;28;20176;-80
2022/08/03 07:00:25;;;;;;;4.18;1.00;;;36.50;36.70;;;;;;6197359;28;20047;-80
2022/08/03 07:03:27;;;;;;;1.40;0.90;;;35.00;38.20;;;;;;6186546;28;20050;-82
2022/08/03 07:06:30;;;;;;;4.00;1.20;;;34.00;39.30;;;;;;6181388;28;20072;-81
2022/08/03 07:09:32;;;;;;;2.00;1.02;;;33.30;40.10;;;;;;6181113;28;20058;-81
2022/08/03 07:12:34;;;;;;;1.85;0.95;;;32.70;40.70;;;;;;6181160;28;20053;-81
2022/08/03 07:15:36;;;;;;;3.88;0.98;;;32.30;41.40;;;;;;6182262;28;20051;-81
2022/08/03 07:18:38;;;;;;;4.38;0.98;;;32.10;41.80;;;;;;6180621;28;20062;-80
2022/08/03 07:21:41;;;;;;;6.93;1.20;;;32.00;41.60;;;;;;6180451;28;20046;-81
2022/08/03 07:24:43;;;;;;;5.50;1.13;;;31.70;42.40;;;;;;6182434;28;20047;-83
2022/08/03 07:27:45;;;;;;;6.60;1.20;;;31.70;42.80;;;;;;6157991;28;20057;-81
2022/08/03 07:30:47;;;;;;;6.07;1.17;;;31.70;43.10;;;;;;6196663;28;20054;-83
2022/08/03 07:33:49;;;;;;;4.68;0.85;;;31.80;43.10;;;;;;6198044;28;20053;-83
2022/08/03 07:36:52;;;;;;;4.85;1.40;;;31.90;42.70;;;;;;6204646;28;20046;-84
2022/08/03 07:39:54;;;;;;;7.85;1.25;;;32.10;42.70;;;;;;6203163;28;20054;-84
2022/08/03 07:42:57;;;;;;;2.60;1.10;;;32.20;42.70;;;;;;6206100;28;20060;-85
2022/08/03 07:45:58;;;;;;;3.92;1.25;;;32.40;42.50;;;;;;6202430;28;20314;-82
2022/08/03 07:49:00;;;;;;;2.22;1.15;;;32.50;42.60;;;;;;6200045;28;20051;-84
2022/08/03 07:55:24;;;;;;;1.63;0.90;;;32.70;42.30;;;;;;6203022;28;20084;-84
2022/08/03 07:58:26;;;;;;;3.00;1.05;;;32.90;42.00;;;;;;6204122;28;20100;-84
2022/08/03 08:01:28;;;;;;;5.10;1.30;;;33.00;41.80;;;;;;6201426;28;20046;-83
2022/08/03 08:04:30;;;;;;;1.42;1.25;;;33.00;41.80;;;;;;6202775;28;20417;-84
2022/08/03 08:07:33;;;;;;;5.28;0.85;;;33.00;41.90;;;;;;6206990;28;20053;-83
2022/08/03 08:10:35;;;;;;;3.35;1.00;;;33.10;42.00;;;;;;6206416;28;20042;-83
2022/08/03 08:13:37;;;;;;;3.33;1.70;;;33.20;42.10;;;;;;6203091;28;20046;-84
2022/08/03 08:16:39;;;;;;;7.97;1.15;;;33.50;41.80;;;;;;6200967;28;20052;-84
2022/08/03 08:19:41;;;;;;;9.18;1.10;;;33.60;41.40;;;;;;6200164;28;20053;-85
2022/08/03 08:22:44;;;;;;;3.33;0.98;;;33.70;41.70;;;;;;6200660;28;20513;-84
2022/08/03 08:25:46;;;;;;;4.97;1.55;;;33.80;41.60;;;;;;6200066;28;20166;-86
2022/08/03 08:28:48;;;;;;;5.18;1.20;;;34.10;41.60;;;;;;6197778;28;20052;-85
2022/08/03 08:31:49;;;;;;;4.90;1.27;;;34.20;41.30;;;;;;6200577;28;20519;-85
2022/08/03 08:34:52;;;;;;;5.28;1.40;;;34.40;41.00;;;;;;6203323;28;20050;-84
2022/08/03 08:37:55;;;;;;;4.85;1.25;;;34.50;40.80;;;;;;6204052;28;20480;-84
2022/08/03 08:40:57;;;;;;;6.75;1.48;;;34.60;40.30;;;;;;6204022;28;20110;-84
2022/08/03 08:43:59;;;;;;;1.85;1.15;;;34.80;40.20;;;;;;6206509;28;20050;-84
2022/08/03 08:47:03;;;;;;;3.75;0.85;;;34.90;40.00;;;;;;6205084;28;20046;-84
2022/08/03 08:50:06;;;;;;;5.53;1.20;;;35.10;39.60;;;;;;6204846;28;20148;-83
2022/08/03 08:53:12;;;;;;;5.65;1.20;;;35.10;39.70;;;;;;6205635;28;20046;-84
2022/08/03 08:56:16;;;;;;;2.63;1.05;;;35.20;39.90;;;;;;6207017;28;20046;-84
2022/08/03 08:59:18;;;;;;;1.35;0.70;;;35.30;39.80;;;;;;6210431;28;20042;-84
2022/08/03 09:02:20;;;;;;;9.82;1.33;;;35.50;39.80;;;;;;6209847;28;20055;-84
2022/08/03 09:05:22;;;;;;;6.20;1.80;;;35.70;39.40;;;;;;6209788;28;20050;-84
2022/08/03 09:08:25;;;;;;;3.53;1.05;;;35.80;39.00;;;;;;6209851;28;20047;-84
2022/08/03 09:11:27;;;;;;;4.78;1.50;;;35.90;39.10;;;;;;6210419;28;20060;-84
2022/08/03 09:14:30;;;;;;;5.88;1.20;;;36.00;38.90;;;;;;6209093;28;20051;-84
2022/08/03 09:17:40;;;;;;;4.28;1.00;;;36.20;38.50;;;;;;6208810;28;20057;-84
2022/08/03 09:20:42;;;;;;;2.67;1.10;;;36.30;38.30;;;;;;6207443;28;20498;-84
2022/08/03 09:23:46;;;;;;;8.45;1.23;;;36.40;38.00;;;;;;6209536;28;20511;-83
2022/08/03 09:26:50;;;;;;;5.22;0.95;;;36.50;38.10;;;;;;6209018;28;20061;-84
2022/08/03 09:29:53;;;;;;;4.45;1.27;;;36.60;37.90;;;;;;6208589;28;20495;-82
2022/08/03 09:33:00;;;;;;;2.17;1.17;;;36.60;37.60;;;;;;6209093;28;20050;-83
2022/08/03 09:36:02;;;;;;;6.43;1.20;;;36.60;38.00;;;;;;6209257;28;20060;-83
2022/08/03 09:39:06;;;;;;;6.95;1.00;;;36.80;37.60;;;;;;6210377;28;20301;-84
2022/08/03 09:42:09;;;;;;;4.38;0.90;;;36.90;37.60;;;;;;6209769;28;20047;-84
2022/08/03 09:45:26;;;;;;;11.63;1.20;;;37.00;37.50;;;;;;6210226;28;20053;-83
2022/08/03 09:48:30;;;;;;;3.88;0.95;;;37.10;37.40;;;;;;6210217;28;20053;-83
2022/08/03 09:51:32;;;;;;;4.43;0.95;;;37.20;37.60;;;;;;6210059;28;20506;-84
2022/08/03 09:54:35;;;;;;;2.55;0.82;;;37.30;37.50;;;;;;6206233;28;20053;-84
2022/08/03 09:57:39;;;;;;;6.30;1.13;;;37.30;37.10;;;;;;6212493;28;20062;-84
2022/08/03 10:00:56;;;;;;;2.75;0.80;;;37.50;36.70;;;;;;6210581;28;20122;-84
2022/08/03 10:03:59;;;;;;;2.05;0.80;;;37.60;36.70;;;;;;6187168;28;20050;-84
2022/08/03 10:07:06;;;;;;;2.28;0.80;;;38.20;36.20;;;;;;6191237;28;20058;-83
2022/08/03 10:10:09;;;;;;;;;;;39.30;35.40;;;;;;6187198;28;20047;-84
2022/08/03 10:13:13;;;;;;;1.35;0.70;;;40.30;34.40;;;;;;6186023;28;19922;-85
2022/08/03 10:16:14;;;;;;;7.80;1.33;;;40.60;33.60;;;;;;6183687;28;20146;-85
2022/08/03 10:19:17;;;;;;;3.08;1.00;;;40.50;33.90;;;;;;6184358;28;20132;-83
2022/08/03 10:22:21;;;;;;;2.78;0.60;;;40.20;34.00;;;;;;6189288;28;20064;-84
2022/08/03 10:25:25;;;;;;;2.47;0.68;;;39.80;33.90;;;;;;6207501;28;20046;-84
2022/08/03 10:28:34;;;;;;;0.88;0.47;;;39.50;34.90;;;;;;6207849;28;20046;-84
2022/08/03 10:31:40;;;;;;;3.78;0.95;;;39.40;33.90;;;;;;6205718;28;20046;-84
2022/08/03 10:34:44;;;;;;;1.33;0.73;;;39.30;34.10;;;;;;6203643;28;20054;-82
2022/08/03 10:37:57;;;;;;;2.75;0.73;;;39.20;34.50;;;;;;6202887;28;20051;-83
2022/08/03 10:41:01;;;;;;;2.90;0.50;;;39.30;34.40;;;;;;6203515;28;20042;-83
2022/08/03 10:44:08;;;;;;;3.85;0.88;;;39.40;34.40;;;;;;6202904;28;20054;-83
2022/08/03 10:47:11;;;;;;;0.80;0.68;;;39.50;34.10;;;;;;6207303;28;20105;-84
2022/08/03 10:50:13;;;;;;;4.13;0.50;;;39.70;33.90;;;;;;6203702;28;20506;-83
2022/08/03 10:53:15;;;;;;;1.38;1.10;;;39.80;34.00;;;;;;6202797;28;20057;-83
2022/08/03 11:00:05;;;;;;;1.88;0.70;;;40.10;33.50;;;;;;6203101;28;20069;-84
2022/08/03 11:03:09;;;;;;;1.08;0.77;;;40.40;33.00;;;;;;6204222;28;20054;-84
2022/08/03 11:06:17;;;;;;;4.88;0.90;;;40.40;32.90;;;;;;6203227;28;20042;-83
2022/08/03 11:09:19;;;;;;;2.45;0.70;;;40.50;33.00;;;;;;6202524;28;20046;-84
2022/08/03 11:12:25;;;;;;;3.08;0.90;;;40.60;32.90;;;;;;6201008;28;20053;-84
2022/08/03 11:15:34;;;;;;;8.38;0.75;;;40.80;32.70;;;;;;6201433;28;20201;-84
2022/08/03 11:18:36;;;;;;;2.95;0.52;;;41.00;32.80;;;;;;6200729;28;20126;-85
2022/08/03 11:21:57;;;;;;;2.45;0.40;;;41.20;32.20;;;;;;6200255;28;20046;-84
2022/08/03 11:25:03;;;;;;;1.50;0.50;;;41.10;32.20;;;;;;6199522;28;20046;-84
2022/08/03 11:28:28;;;;;;;7.53;1.13;;;41.20;32.20;;;;;;6198908;28;20061;-84
2022/08/03 11:31:46;;;;;;;3.05;0.52;;;41.40;32.20;;;;;;6198274;28;20057;-85
2022/08/03 11:35:09;;;;;;;1.70;0.80;;;41.20;32.10;;;;;;6200154;28;20046;-85
2022/08/03 11:38:12;;;;;;;3.28;0.43;;;41.30;32.40;;;;;;6199623;28;20133;-82
2022/08/03 11:41:34;;;;;;;7.05;0.68;;;41.40;31.90;;;;;;6199579;28;20093;-84
2022/08/03 11:44:43;;;;;;;6.72;0.65;;;41.50;31.80;;;;;;6190808;28;20050;-84
2022/08/03 11:47:46;;;;;;;0.77;0.40;;;41.60;31.60;;;;;;6206411;28;20068;-83
2022/08/03 11:50:49;;;;;;;2.75;0.50;;;41.90;31.40;;;;;;6198110;28;20046;-84
2022/08/03 11:53:53;;;;;;;2.97;1.42;;;42.10;31.30;;;;;;6198696;28;20053;-84
2022/08/03 11:56:54;;;;;;;10.57;1.02;;;42.40;30.90;;;;;;6195602;28;20061;-84
2022/08/03 11:59:57;;;;;;;3.47;0.60;;;42.60;30.80;;;;;;6198995;28;20061;-83
2022/08/03 12:03:06;;;;;;;1.05;0.50;;;42.70;30.50;;;;;;6199049;28;20038;-85
2022/08/03 12:06:10;;;;;;;2.83;0.85;;;42.90;30.50;;;;;;6200003;28;20452;-84
2022/08/03 12:09:15;;;;;;;2.47;0.60;;;42.90;30.40;;;;;;6199948;28;20046;-84
2022/08/03 12:12:17;;;;;;;0.63;0.40;;;43.00;30.20;;;;;;6198729;28;20424;-84
2022/08/03 12:15:25;;;;;;;5.03;0.60;;;43.00;30.00;;;;;;6200790;28;20050;-84
2022/08/03 12:18:27;;;;;;;1.70;0.63;;;43.20;30.00;;;;;;6197295;28;20054;-84
2022/08/03 12:21:29;;;;;;;3.30;0.50;;;43.20;29.80;;;;;;6196940;28;20050;-84
2022/08/03 12:24:40;;;;;;;1.33;0.57;;;43.00;29.90;;;;;;6211498;28;20052;-84
2022/08/03 12:27:42;;;;;;;4.32;0.60;;;43.00;30.00;;;;;;6203702;28;20061;-85
2022/08/03 12:30:47;;;;;;;1.17;0.40;;;43.00;30.00;;;;;;6200849;28;20057;-84
2022/08/03 12:34:01;;;;;;;0.77;0.50;;;43.20;30.00;;;;;;6204539;28;20038;-84
2022/08/03 12:37:05;;;;;;;1.67;0.60;;;43.30;29.70;;;;;;6204767;28;20066;-84
2022/08/03 12:40:09;;;;;;;0.75;0.50;;;43.50;29.70;;;;;;6205924;28;20054;-85
2022/08/03 12:43:12;;;;;;;0.63;0.55;;;43.60;29.70;;;;;;6203124;28;20065;-84
2022/08/03 12:46:17;;;;;;;2.42;0.40;;;43.80;29.70;;;;;;6203039;28;20053;-85
2022/08/03 12:49:19;;;;;;;0.65;0.20;;;43.90;29.50;;;;;;6204634;28;20054;-84
2022/08/03 12:52:22;;;;;;;1.77;0.65;;;44.10;29.90;;;;;;6204138;28;20545;-85
2022/08/03 12:55:32;;;;;;;0.80;0.22;;;44.10;29.10;;;;;;6201138;28;20046;-84
2022/08/03 12:58:35;;;;;;;1.50;0.60;;;43.90;29.20;;;;;;6168142;28;20073;-84
2022/08/03 13:01:38;;;;;;;16.13;1.15;;;43.90;29.30;;;;;;6205054;28;20518;-84
2022/08/03 13:04:40;;;;;;;2.50;0.55;;;44.00;29.30;;;;;;6204319;28;20057;-84
2022/08/03 13:07:42;;;;;;;4.80;0.70;;;44.20;29.10;;;;;;6203403;28;20058;-84
2022/08/03 13:10:44;;;;;;;17.40;1.10;;;44.20;29.10;;;;;;6202029;28;20741;-85
2022/08/03 13:13:47;;;;;;;3.40;0.68;;;44.30;28.90;;;;;;6202118;28;20445;-84
2022/08/03 13:16:51;;;;;;;4.68;0.63;;;44.30;29.00;;;;;;6201847;28;20042;-84
2022/08/03 13:19:53;;;;;;;3.53;0.60;;;44.40;28.90;;;;;;6202510;28;20050;-84
2022/08/03 13:22:55;;;;;;;3.60;0.57;;;44.30;29.00;;;;;;6202986;28;20050;-84
2022/08/03 13:25:57;;;;;;;1.33;0.30;;;44.30;28.90;;;;;;6202022;28;20121;-84
2022/08/03 13:28:59;;;;;;;1.70;0.63;;;44.40;28.90;;;;;;6202253;28;20045;-85
2022/08/03 13:32:02;;;;;;;1.58;0.47;;;44.40;28.70;;;;;;6201509;28;20510;-85
2022/08/03 13:35:05;;;;;;;3.95;0.40;;;44.10;28.80;;;;;;6202015;28;20056;-84
2022/08/03 13:38:07;;;;;;;3.83;0.55;;;44.10;29.00;;;;;;6202071;28;20051;-84
2022/08/03 13:41:08;;;;;;;0.80;0.40;;;44.30;28.90;;;;;;6202124;28;20046;-85
2022/08/03 13:44:10;;;;;;;2.67;0.70;;;44.30;28.80;;;;;;6199631;28;20073;-84
2022/08/03 13:47:13;;;;;;;4.47;1.27;;;44.30;28.80;;;;;;6202246;28;20054;-84
2022/08/03 13:50:15;;;;;;;5.97;1.10;;;44.20;28.90;;;;;;6202425;28;20051;-85
2022/08/03 13:53:17;;;;;;;1.65;0.70;;;44.30;28.80;;;;;;6201278;28;20177;-84
2022/08/03 13:56:19;;;;;;;1.85;0.70;;;44.30;28.70;;;;;;6200928;28;20494;-84
2022/08/03 13:59:20;;;;;;;1.98;0.43;;;44.40;28.60;;;;;;6204255;28;20042;-84
2022/08/03 14:02:24;;;;;;;1.95;0.93;;;44.30;28.60;;;;;;6203019;28;20509;-84
2022/08/03 14:05:25;;;;;;;1.63;0.77;;;44.10;28.90;;;;;;6203663;28;20129;-84
2022/08/03 14:08:27;;;;;;;4.57;2.15;;;44.10;28.80;;;;;;6203141;28;20528;-84
2022/08/03 14:11:29;;;;;;;3.13;0.70;;;44.10;28.80;;;;;;6201599;28;20046;-84
2022/08/03 14:14:31;;;;;;;0.63;0.50;;;44.30;28.70;;;;;;6201961;28;20046;-84
2022/08/03 14:17:34;;;;;;;3.58;0.55;;;44.00;28.70;;;;;;6202188;28;20559;-84
2022/08/03 14:20:36;;;;;;;2.58;1.02;;;43.80;28.90;;;;;;6202236;28;20038;-84
2022/08/03 14:23:38;;;;;;;0.43;0.40;;;43.80;29.00;;;;;;6202091;28;20053;-84
2022/08/03 14:26:40;;;;;;;2.45;0.35;;;44.00;28.90;;;;;;6200978;28;20077;-84
2022/08/03 14:29:42;;;;;;;2.80;0.73;;;44.00;29.00;;;;;;6200528;28;20516;-84
2022/08/03 14:32:45;;;;;;;1.73;0.80;;;44.00;29.10;;;;;;6195616;28;20046;-84
2022/08/03 14:35:47;;;;;;;2.30;0.70;;;44.00;28.90;;;;;;6203063;28;20054;-84
2022/08/03 14:38:48;;;;;;;3.22;0.85;;;44.00;29.00;;;;;;6206077;28;20056;-85
2022/08/03 14:41:50;;;;;;;0.90;0.52;;;44.00;28.90;;;;;;6201732;28;20057;-84
2022/08/03 14:44:52;;;;;;;1.20;0.47;;;43.90;29.00;;;;;;6201101;28;20418;-83
2022/08/03 14:47:55;;;;;;;2.22;0.77;;;43.90;29.00;;;;;;6201727;28;20053;-83
2022/08/03 14:50:57;;;;;;;4.10;0.60;;;43.80;28.90;;;;;;6200685;28;20054;-84
2022/08/03 14:53:58;;;;;;;1.73;0.70;;;43.80;28.90;;;;;;6201053;28;20074;-84
2022/08/03 14:57:00;;;;;;;0.95;0.80;;;43.80;28.90;;;;;;6199628;28;20046;-84
2022/08/03 15:00:02;;;;;;;4.03;0.57;;;43.80;28.90;;;;;;6199520;28;20600;-85
2022/08/03 15:03:06;;;;;;;1.50;0.57;;;43.80;28.90;;;;;;6201236;28;20056;-84
2022/08/03 15:06:08;;;;;;;3.58;0.45;;;43.80;28.70;;;;;;6203090;28;20050;-84
2022/08/03 15:09:10;;;;;;;1.85;0.70;;;43.60;29.00;;;;;;6199874;28;20050;-85
2022/08/03 15:12:12;;;;;;;0.88;0.50;;;43.60;29.10;;;;;;6201532;28;20056;-84
2022/08/03 15:15:14;;;;;;;2.78;0.40;;;43.40;29.00;;;;;;6200639;28;20053;-85
2022/08/03 15:18:17;;;;;;;1.63;0.50;;;43.30;29.10;;;;;;6200842;28;20050;-84
2022/08/03 15:21:18;;;;;;;0.80;0.52;;;43.10;29.00;;;;;;6199847;28;20042;-84
2022/08/03 15:24:20;;;;;;;3.05;0.50;;;42.90;29.20;;;;;;6199647;28;20054;-84
2022/08/03 15:27:22;;;;;;;0.85;0.40;;;42.70;29.50;;;;;;6200994;28;20050;-85
2022/08/03 15:30:24;;;;;;;1.75;0.65;;;42.80;29.50;;;;;;6200155;28;20042;-83
2022/08/03 15:33:27;;;;;;;1.10;0.38;;;43.00;29.50;;;;;;6199399;28;20042;-84
2022/08/03 15:36:29;;;;;;;2.22;0.50;;;43.10;29.30;;;;;;6199077;28;20044;-85
2022/08/03 15:39:30;;;;;;;0.50;0.30;;;43.00;29.30;;;;;;6199288;28;20046;-84
2022/08/03 15:42:33;;;;;;;2.35;0.60;;;43.00;29.20;;;;;;6198786;28;20042;-84
2022/08/03 15:45:35;;;;;;;2.33;0.65;;;42.80;29.60;;;;;;6198965;28;20050;-85
2022/08/03 15:48:38;;;;;;;12.30;1.27;;;42.80;29.70;;;;;;6199007;28;20050;-84
2022/08/03 15:51:40;;;;;;;3.08;0.60;;;42.70;29.60;;;;;;6199133;28;20097;-84
2022/08/03 15:54:42;;;;;;;2.33;0.82;;;42.60;29.60;;;;;;6198755;28;20054;-84
2022/08/03 15:57:44;;;;;;;1.95;0.50;;;42.40;29.70;;;;;;6197896;28;20050;-84
2022/08/03 16:00:46;;;;;;;2.72;0.50;;;42.40;29.60;;;;;;6197789;28;20417;-85
2022/08/03 16:03:49;;;;;;;1.92;0.55;;;42.10;29.90;;;;;;6202326;28;20056;-84
2022/08/03 16:06:50;;;;;;;1.13;0.50;;;42.00;30.00;;;;;;6198884;28;20050;-83
2022/08/03 16:09:52;;;;;;;4.43;0.60;;;42.10;29.90;;;;;;6199212;28;20045;-84